createdAt,value
2022-08-11T00:02:00.298Z,16.55
2022-08-11T00:04:37.191Z,16.50
2022-08-11T00:07:06.194Z,16.45
2022-08-11T00:09:38.841Z,16.35
2022-08-11T00:12:15.171Z,16.30
2022-08-11T00:14:44.462Z,16.31
2022-08-11T00:17:14.237Z,16.25
2022-08-11T00:20:14.274Z,16.29
2022-08-11T00:22:33.590Z,16.31
2022-08-11T00:25:11.535Z,16.34
2022-08-11T00:27:39.992Z,16.27
2022-08-11T00:30:11.670Z,16.25
2022-08-11T00:32:40.854Z,16.20
2022-08-11T00:35:54.470Z,16.18
2022-08-11T00:38:01.072Z,16.08
2022-08-11T00:40:44.506Z,16.10
2022-08-11T00:43:22.254Z,15.95
2022-08-11T00:46:12.324Z,15.97
2022-08-11T00:48:45.178Z,16.01
2022-08-11T00:51:25.678Z,15.96
2022-08-11T00:54:25.240Z,15.98
2022-08-11T00:57:36.791Z,15.96
2022-08-11T01:00:16.494Z,15.93
2022-08-11T01:03:13.018Z,15.86
2022-08-11T01:06:05.384Z,15.82
2022-08-11T01:09:21.007Z,15.87
2022-08-11T01:12:09.593Z,15.80
2022-08-11T01:14:48.248Z,15.69
2022-08-11T01:17:35.736Z,15.68
2022-08-11T01:20:46.720Z,15.67
2022-08-11T01:23:37.859Z,15.66
2022-08-11T01:26:41.415Z,15.65
2022-08-11T01:29:33.497Z,15.65
2022-08-11T01:32:29.370Z,15.63
2022-08-11T01:35:11.295Z,15.57
2022-08-11T01:37:59.184Z,15.55
2022-08-11T01:40:26.026Z,15.46
2022-08-11T01:43:27.928Z,15.40
2022-08-11T01:46:28.188Z,15.32
2022-08-11T01:50:08.488Z,15.31
2022-08-11T01:52:45.076Z,15.40
2022-08-11T01:55:18.202Z,15.32
2022-08-11T01:57:55.015Z,15.28
2022-08-11T02:00:28.998Z,15.25
2022-08-11T02:03:40.585Z,15.18
2022-08-11T02:06:41.349Z,15.13
2022-08-11T02:09:51.768Z,15.00
2022-08-11T02:12:52.225Z,14.92
2022-08-11T02:15:34.434Z,14.92
2022-08-11T02:18:13.586Z,14.85
2022-08-11T02:21:16.074Z,14.88
2022-08-11T02:24:13.414Z,14.83
2022-08-11T02:27:07.472Z,14.80
2022-08-11T02:29:47.926Z,14.84
2022-08-11T02:32:39.442Z,14.78
2022-08-11T02:35:12.068Z,14.71
2022-08-11T02:38:14.446Z,14.65
2022-08-11T02:41:02.732Z,14.63
2022-08-11T02:43:41.711Z,14.62
2022-08-11T02:46:27.528Z,14.53
2022-08-11T02:49:37.143Z,14.58
2022-08-11T02:52:15.731Z,14.47
2022-08-11T02:55:02.451Z,14.49
2022-08-11T02:57:47.416Z,14.45
2022-08-11T03:00:16.307Z,14.44
2022-08-11T03:03:12.445Z,14.45
2022-08-11T03:05:53.103Z,14.36
2022-08-11T03:08:36.434Z,14.37
2022-08-11T03:11:30.797Z,14.37
2022-08-11T03:14:34.654Z,14.29
2022-08-11T03:17:20.021Z,14.26
2022-08-11T03:19:55.284Z,14.24
2022-08-11T03:22:25.315Z,14.25
2022-08-11T03:25:38.178Z,14.22
2022-08-11T03:28:21.112Z,14.17
2022-08-11T03:31:15.851Z,14.18
2022-08-11T03:34:06.756Z,14.19
2022-08-11T03:36:34.131Z,14.20
2022-08-11T03:39:51.104Z,14.14
2022-08-11T03:42:29.796Z,14.86
2022-08-11T03:45:06.446Z,14.36
2022-08-11T03:47:58.787Z,14.17
2022-08-11T03:50:50.715Z,14.11
2022-08-11T03:53:45.430Z,14.07
2022-08-11T03:56:39.764Z,14.05
2022-08-11T03:59:50.253Z,14.11
2022-08-11T04:02:44.194Z,14.07
2022-08-11T04:05:45.037Z,14.06
2022-08-11T04:08:34.361Z,14.04
2022-08-11T04:11:19.746Z,13.98
2022-08-11T04:14:37.020Z,14.04
2022-08-11T04:17:42.504Z,14.04
2022-08-11T04:20:36.941Z,14.15
2022-08-11T04:24:36.438Z,14.23
2022-08-11T04:26:50.025Z,14.37
2022-08-11T04:29:25.790Z,14.36
2022-08-11T04:32:33.989Z,14.43
2022-08-11T04:35:24.112Z,14.40
2022-08-11T04:37:53.586Z,14.55
2022-08-11T04:40:39.148Z,14.68
2022-08-11T04:43:27.509Z,14.68
2022-08-11T04:46:09.507Z,14.66
2022-08-11T04:48:54.923Z,14.98
2022-08-11T04:52:37.714Z,15.13
2022-08-11T04:55:51.517Z,15.62
2022-08-11T04:59:15.432Z,15.85
2022-08-11T05:02:19.773Z,16.18
2022-08-11T05:05:31.307Z,16.51
2022-08-11T05:08:27.252Z,16.82
2022-08-11T05:11:22.666Z,16.96
2022-08-11T05:14:11.026Z,17.13
2022-08-11T05:17:06.831Z,17.25
2022-08-11T05:19:52.145Z,17.24
2022-08-11T05:22:38.729Z,17.34
2022-08-11T05:26:45.270Z,17.43
2022-08-11T05:28:49.967Z,17.29
2022-08-11T05:31:57.627Z,17.36
2022-08-11T05:34:51.068Z,17.59
2022-08-11T05:37:34.520Z,17.73
2022-08-11T05:40:26.185Z,17.85
2022-08-11T05:43:21.061Z,17.89
2022-08-11T05:46:21.351Z,18.09
2022-08-11T05:49:08.273Z,18.13
2022-08-11T05:51:55.783Z,18.34
2022-08-11T05:54:50.998Z,18.23
2022-08-11T05:57:50.716Z,18.71
2022-08-11T06:00:20.189Z,19.41
2022-08-11T06:02:55.363Z,19.65
2022-08-11T06:05:22.876Z,20.01
2022-08-11T06:07:57.054Z,20.53
2022-08-11T06:10:33.533Z,20.63
2022-08-11T06:13:01.679Z,20.85
2022-08-11T06:15:31.099Z,21.01
2022-08-11T06:18:01.176Z,21.14
2022-08-11T06:20:32.832Z,21.21
2022-08-11T06:23:03.877Z,21.17
2022-08-11T06:25:35.670Z,21.23
2022-08-11T06:28:07.463Z,21.65
2022-08-11T06:30:44.018Z,21.65
2022-08-11T06:33:18.100Z,22.25
2022-08-11T06:35:48.236Z,23.21
2022-08-11T06:38:36.809Z,24.21
2022-08-11T06:41:31.838Z,24.79
2022-08-11T06:44:13.837Z,25.12
2022-08-11T06:46:43.523Z,24.69
2022-08-11T06:49:31.449Z,25.04
2022-08-11T06:52:35.872Z,24.53
2022-08-11T06:55:08.087Z,24.60
2022-08-11T06:57:57.874Z,24.51
2022-08-11T07:00:28.939Z,24.91
2022-08-11T07:03:28.628Z,25.17
2022-08-11T07:06:20.664Z,25.43
2022-08-11T07:09:51.678Z,25.48
2022-08-11T07:12:49.218Z,25.02
2022-08-11T07:16:10.781Z,25.43
2022-08-11T07:18:45.343Z,25.17
2022-08-11T07:22:01.477Z,24.94
2022-08-11T07:24:59.655Z,24.46
2022-08-11T07:27:56.204Z,24.92
2022-08-11T07:30:26.329Z,25.58
2022-08-11T07:32:55.875Z,25.25
2022-08-11T07:35:32.008Z,24.39
2022-08-11T07:38:07.280Z,24.13
2022-08-11T07:40:35.845Z,25.00
2022-08-11T07:43:04.452Z,24.53
2022-08-11T07:45:50.933Z,24.73
2022-08-11T07:48:36.718Z,23.90
2022-08-11T07:51:22.670Z,23.87
2022-08-11T07:53:58.814Z,23.70
2022-08-11T07:57:07.578Z,23.97
2022-08-11T08:00:04.258Z,23.85
2022-08-11T08:02:49.905Z,24.00
2022-08-11T08:05:37.201Z,24.19
2022-08-11T08:08:23.422Z,24.50
2022-08-11T08:11:09.353Z,24.41
2022-08-11T08:13:56.185Z,24.43
2022-08-11T08:16:43.019Z,24.12
2022-08-11T08:19:14.914Z,24.51
2022-08-11T08:21:45.461Z,24.56
2022-08-11T08:24:13.914Z,24.46
2022-08-11T08:26:59.805Z,24.29
2022-08-11T08:29:53.294Z,24.15
2022-08-11T08:32:21.792Z,24.30
2022-08-11T08:34:55.181Z,24.45
2022-08-11T08:37:46.282Z,24.56
2022-08-11T08:40:11.357Z,24.56
2022-08-11T08:42:51.838Z,24.55
2022-08-11T08:45:19.582Z,25.00
2022-08-11T08:48:11.107Z,25.20
2022-08-11T08:51:03.421Z,25.20
2022-08-11T08:53:35.616Z,25.21
2022-08-11T08:56:03.849Z,25.56
2022-08-11T08:58:33.407Z,25.14
2022-08-11T09:01:01.248Z,25.40
2022-08-11T09:04:05.151Z,25.47
2022-08-11T09:06:17.164Z,25.52
2022-08-11T09:08:45.655Z,25.94
2022-08-11T09:11:33.050Z,26.32
2022-08-11T09:14:05.970Z,26.61
2022-08-11T09:16:36.751Z,26.89
2022-08-11T09:19:04.565Z,27.08
2022-08-11T09:21:46.368Z,27.28
2022-08-11T09:24:37.042Z,27.74
2022-08-11T09:27:08.400Z,27.93
2022-08-11T09:29:37.769Z,28.09
2022-08-11T09:32:07.084Z,28.02
2022-08-11T09:34:37.094Z,28.49
2022-08-11T09:37:53.601Z,29.08
2022-08-11T09:40:29.573Z,28.93
2022-08-11T09:43:22.128Z,29.19
2022-08-11T09:45:51.954Z,29.19
2022-08-11T09:48:21.258Z,28.76
2022-08-11T09:50:50.889Z,30.06
2022-08-11T09:53:36.827Z,29.79
2022-08-11T09:56:29.665Z,29.35
2022-08-11T09:58:57.496Z,29.51
2022-08-11T10:01:32.130Z,29.89
2022-08-11T10:04:15.447Z,30.10
2022-08-11T10:07:04.345Z,30.16
2022-08-11T10:09:44.200Z,30.72
2022-08-11T10:12:14.715Z,30.87
2022-08-11T10:15:03.792Z,30.60
2022-08-11T10:17:34.242Z,30.41
2022-08-11T10:20:05.933Z,30.91
2022-08-11T10:22:53.625Z,30.57
2022-08-11T10:25:39.917Z,30.53
2022-08-11T10:28:33.014Z,30.56
2022-08-11T10:31:17.448Z,30.52
2022-08-11T10:34:00.425Z,30.36
2022-08-11T10:36:35.852Z,30.75
2022-08-11T10:39:05.572Z,30.48
2022-08-11T10:42:06.669Z,30.92
2022-08-11T10:44:45.701Z,30.96
2022-08-11T10:47:34.214Z,30.57
2022-08-11T10:50:27.203Z,30.95
2022-08-11T10:53:13.705Z,30.64
2022-08-11T10:56:02.193Z,30.71
2022-08-11T10:58:47.971Z,30.64
2022-08-11T11:01:17.592Z,30.82
2022-08-11T11:03:45.759Z,31.24
2022-08-11T11:06:29.956Z,31.11
2022-08-11T11:09:04.941Z,31.26
2022-08-11T11:11:55.744Z,31.19
2022-08-11T11:14:49.881Z,30.96
2022-08-11T11:17:54.211Z,31.02
2022-08-11T11:20:34.723Z,31.00
2022-08-11T11:23:21.557Z,30.55
2022-08-11T11:26:14.618Z,31.20
2022-08-11T11:29:06.530Z,31.44
2022-08-11T11:32:16.036Z,31.69
2022-08-11T11:34:59.375Z,31.76
2022-08-11T11:37:29.295Z,31.80
2022-08-11T11:39:57.783Z,32.22
2022-08-11T11:42:25.268Z,31.50
2022-08-11T11:44:55.876Z,31.34
2022-08-11T11:47:24.150Z,30.83
2022-08-11T11:49:51.305Z,31.65
2022-08-11T11:52:20.996Z,30.57
2022-08-11T11:54:50.936Z,30.78
2022-08-11T11:57:39.036Z,31.30
2022-08-11T12:00:32.936Z,31.83
2022-08-11T12:03:06.098Z,31.41
2022-08-11T12:05:36.238Z,31.64
2022-08-11T12:08:17.349Z,31.93
2022-08-11T12:10:50.677Z,31.71
2022-08-11T12:13:37.574Z,31.82
2022-08-11T12:16:33.991Z,31.95
2022-08-11T12:18:54.595Z,31.95
2022-08-11T12:21:22.942Z,32.18
2022-08-11T12:24:09.410Z,32.07
2022-08-11T12:27:15.076Z,31.34
2022-08-11T12:29:41.255Z,31.99
2022-08-11T12:32:12.642Z,31.53
2022-08-11T12:34:39.462Z,31.14
2022-08-11T12:37:12.994Z,31.49
2022-08-11T12:40:16.343Z,31.87
2022-08-11T12:43:21.707Z,32.23
2022-08-11T12:45:58.621Z,32.04
2022-08-11T12:48:59.078Z,31.89
2022-08-11T12:52:11.442Z,31.76
2022-08-11T12:54:52.368Z,32.03
2022-08-11T12:57:52.147Z,31.87
2022-08-11T13:00:38.504Z,32.47
2022-08-11T13:03:26.980Z,31.79
2022-08-11T13:05:56.858Z,32.32
2022-08-11T13:08:25.489Z,32.38
2022-08-11T13:11:13.310Z,32.22
2022-08-11T13:13:54.701Z,32.45
2022-08-11T13:16:52.865Z,32.37
2022-08-11T13:19:21.648Z,31.98
2022-08-11T13:21:50.477Z,32.58
2022-08-11T13:24:18.544Z,32.26
2022-08-11T13:26:50.020Z,31.93
2022-08-11T13:29:25.222Z,32.08
2022-08-11T13:32:00.783Z,32.39
2022-08-11T13:34:31.279Z,32.49
2022-08-11T13:37:02.067Z,32.31
2022-08-11T13:39:31.487Z,32.32
2022-08-11T13:42:00.287Z,32.29
2022-08-11T13:44:30.331Z,32.50
2022-08-11T13:46:59.315Z,32.30
2022-08-11T13:49:27.614Z,32.61
2022-08-11T13:51:55.895Z,32.28
2022-08-11T13:54:30.174Z,32.37
2022-08-11T13:57:00.916Z,32.46
2022-08-11T13:59:29.912Z,32.05
2022-08-11T14:02:21.416Z,32.14
2022-08-11T14:04:57.401Z,32.67
2022-08-11T14:07:27.666Z,32.47
2022-08-11T14:09:59.407Z,32.22
2022-08-11T14:12:53.509Z,32.38
2022-08-11T14:15:25.113Z,32.56
2022-08-11T14:17:57.201Z,32.26
2022-08-11T14:20:39.836Z,32.57
2022-08-11T14:23:12.515Z,32.38
2022-08-11T14:26:02.305Z,31.89
2022-08-11T14:28:39.999Z,31.74
2022-08-11T14:31:09.425Z,32.57
2022-08-11T14:34:00.575Z,32.14
2022-08-11T14:36:26.829Z,32.56
2022-08-11T14:38:54.671Z,32.14
2022-08-11T14:42:11.465Z,31.93
2022-08-11T14:44:50.128Z,31.75
2022-08-11T14:47:23.919Z,31.71
2022-08-11T14:50:02.539Z,31.57
2022-08-11T14:52:43.341Z,32.04
2022-08-11T14:55:30.474Z,31.58
2022-08-11T14:57:57.660Z,31.63
2022-08-11T15:00:25.400Z,32.16
2022-08-11T15:03:10.356Z,32.13
2022-08-11T15:06:06.775Z,31.95
2022-08-11T15:08:57.027Z,32.04
2022-08-11T15:11:47.596Z,31.75
2022-08-11T15:14:36.195Z,31.54
2022-08-11T15:17:10.518Z,31.71
2022-08-11T15:20:00.791Z,31.82
2022-08-11T15:22:47.317Z,32.04
2022-08-11T15:25:14.634Z,31.61
2022-08-11T15:28:04.877Z,32.03
2022-08-11T15:30:53.227Z,32.11
2022-08-11T15:33:40.307Z,31.89
2022-08-11T15:36:29.171Z,31.96
2022-08-11T15:39:05.203Z,32.11
2022-08-11T15:42:09.529Z,32.46
2022-08-11T15:45:02.532Z,31.56
2022-08-11T15:47:39.133Z,32.18
2022-08-11T15:50:20.863Z,32.04
2022-08-11T15:53:00.987Z,32.03
2022-08-11T15:55:30.937Z,31.63
2022-08-11T15:58:20.140Z,31.68
2022-08-11T16:01:08.913Z,31.45
2022-08-11T16:04:13.297Z,31.23
2022-08-11T16:07:04.808Z,30.96
2022-08-11T16:09:51.961Z,31.43
2022-08-11T16:12:26.988Z,31.02
2022-08-11T16:15:20.157Z,30.93
2022-08-11T16:17:51.528Z,30.87
2022-08-11T16:20:22.476Z,30.26
2022-08-11T16:22:55.308Z,30.09
2022-08-11T16:27:03.405Z,29.92
2022-08-11T16:28:18.872Z,29.68
2022-08-11T16:30:46.709Z,29.78
2022-08-11T16:33:50.762Z,29.12
2022-08-11T16:36:23.030Z,29.11
2022-08-11T16:38:50.917Z,28.80
2022-08-11T16:41:41.394Z,28.65
2022-08-11T16:44:37.017Z,28.15
2022-08-11T16:47:08.463Z,27.98
2022-08-11T16:49:43.606Z,27.91
2022-08-11T16:52:20.654Z,27.89
2022-08-11T16:54:50.544Z,27.53
2022-08-11T16:57:47.496Z,27.56
2022-08-11T17:00:17.831Z,27.40
2022-08-11T17:03:11.588Z,27.19
2022-08-11T17:06:10.120Z,27.29
2022-08-11T17:09:10.501Z,27.11
2022-08-11T17:12:14.928Z,27.15
2022-08-11T17:14:49.778Z,27.12
2022-08-11T17:17:38.585Z,26.71
2022-08-11T17:20:40.138Z,26.49
2022-08-11T17:23:18.850Z,26.69
2022-08-11T17:25:59.150Z,26.81
2022-08-11T17:28:32.068Z,26.73
2022-08-11T17:31:22.133Z,26.61
2022-08-11T17:34:10.367Z,26.69
2022-08-11T17:36:40.432Z,26.39
2022-08-11T17:39:13.269Z,26.46
2022-08-11T17:42:00.224Z,26.42
2022-08-11T17:44:46.974Z,26.34
2022-08-11T17:47:33.909Z,26.26
2022-08-11T17:50:17.355Z,26.09
2022-08-11T17:53:05.868Z,25.96
2022-08-11T17:55:53.836Z,25.83
2022-08-11T17:58:40.036Z,25.74
2022-08-11T18:01:10.986Z,25.74
2022-08-11T18:03:40.907Z,25.60
2022-08-11T18:06:12.833Z,25.61
2022-08-11T18:09:04.121Z,25.52
2022-08-11T18:12:10.285Z,25.30
2022-08-11T18:14:59.005Z,25.31
2022-08-11T18:17:45.039Z,25.27
2022-08-11T18:20:30.479Z,25.09
2022-08-11T18:23:19.666Z,25.09
2022-08-11T18:26:07.667Z,25.04
2022-08-11T18:29:03.741Z,24.83
2022-08-11T18:31:52.636Z,24.77
2022-08-11T18:34:45.111Z,24.58
2022-08-11T18:37:47.835Z,24.47
2022-08-11T18:40:38.009Z,24.57
2022-08-11T18:43:28.795Z,24.33
2022-08-11T18:46:23.435Z,24.31
2022-08-11T18:49:15.499Z,24.33
2022-08-11T18:52:06.564Z,24.14
2022-08-11T18:54:56.051Z,24.09
2022-08-11T18:57:50.104Z,23.85
2022-08-11T19:00:42.278Z,23.85
2022-08-11T19:03:31.273Z,23.84
2022-08-11T19:06:39.724Z,23.69
2022-08-11T19:09:29.098Z,23.56
2022-08-11T19:12:15.545Z,23.61
2022-08-11T19:15:03.405Z,23.31
2022-08-11T19:17:51.653Z,23.23
2022-08-11T19:20:41.279Z,23.07
2022-08-11T19:23:29.705Z,22.99
2022-08-11T19:26:17.983Z,22.80
2022-08-11T19:29:06.275Z,22.76
2022-08-11T19:31:52.903Z,22.46
2022-08-11T19:34:40.708Z,22.28
2022-08-11T19:37:27.659Z,22.14
2022-08-11T19:40:18.027Z,22.12
2022-08-11T19:43:14.842Z,22.09
2022-08-11T19:46:12.476Z,21.94
2022-08-11T19:48:59.046Z,21.93
2022-08-11T19:51:46.029Z,21.87
2022-08-11T19:54:32.026Z,21.73
2022-08-11T19:57:19.264Z,21.59
2022-08-11T20:00:05.132Z,21.40
2022-08-11T20:02:50.472Z,21.46
2022-08-11T20:05:36.004Z,21.54
2022-08-11T20:08:22.863Z,21.32
2022-08-11T20:11:09.605Z,21.20
2022-08-11T20:13:57.912Z,21.27
2022-08-11T20:16:45.672Z,21.10
2022-08-11T20:19:55.539Z,21.03
2022-08-11T20:22:38.363Z,21.00
2022-08-11T20:25:25.443Z,20.94
2022-08-11T20:28:12.395Z,20.91
2022-08-11T20:30:58.873Z,21.07
2022-08-11T20:33:44.019Z,20.73
2022-08-11T20:36:32.292Z,20.83
2022-08-11T20:39:19.817Z,20.71
2022-08-11T20:42:07.353Z,20.63
2022-08-11T20:44:55.618Z,20.62
2022-08-11T20:47:58.985Z,20.46
2022-08-11T20:50:46.383Z,20.47
2022-08-11T20:53:39.194Z,20.28
2022-08-11T20:56:28.223Z,20.16
2022-08-11T20:59:23.145Z,20.24
2022-08-11T21:02:10.587Z,20.16
2022-08-11T21:05:00.116Z,20.12
2022-08-11T21:07:59.279Z,20.21
2022-08-11T21:10:50.526Z,20.07
2022-08-11T21:13:39.389Z,20.14
2022-08-11T21:16:27.393Z,19.80
2022-08-11T21:20:01.200Z,19.89
2022-08-11T21:22:59.064Z,19.88
2022-08-11T21:25:55.638Z,19.67
2022-08-11T21:28:47.221Z,19.75
2022-08-11T21:31:34.243Z,19.59
2022-08-11T21:34:21.701Z,19.43
2022-08-11T21:37:08.789Z,19.33
2022-08-11T21:39:55.024Z,19.27
2022-08-11T21:42:41.477Z,19.07
2022-08-11T21:45:29.040Z,19.03
2022-08-11T21:48:16.062Z,18.96
2022-08-11T21:51:01.235Z,18.82
2022-08-11T21:53:47.890Z,18.74
2022-08-11T21:56:34.006Z,18.59
2022-08-11T21:59:20.412Z,18.57
2022-08-11T22:02:12.592Z,18.48
2022-08-11T22:05:00.151Z,18.40
2022-08-11T22:07:46.515Z,18.48
2022-08-11T22:10:41.972Z,18.51
2022-08-11T22:13:32.303Z,18.40
2022-08-11T22:16:18.737Z,18.25
2022-08-11T22:19:09.706Z,18.46
2022-08-11T22:22:03.549Z,18.40
2022-08-11T22:24:53.355Z,18.40
2022-08-11T22:27:40.388Z,18.28
2022-08-11T22:30:27.287Z,18.24
2022-08-11T22:33:15.027Z,18.23
2022-08-11T22:36:02.002Z,18.25
2022-08-11T22:38:49.341Z,18.18
2022-08-11T22:41:35.142Z,18.19
2022-08-11T22:44:20.957Z,18.13
2022-08-11T22:47:09.371Z,18.12
2022-08-11T22:49:58.675Z,18.05
2022-08-11T22:52:47.090Z,18.12
2022-08-11T22:55:34.056Z,18.14
2022-08-11T22:58:21.238Z,18.05
2022-08-11T23:01:08.152Z,18.02
2022-08-11T23:03:54.659Z,17.95
2022-08-11T23:06:41.459Z,17.90
2022-08-11T23:09:27.937Z,17.90
2022-08-11T23:12:13.691Z,17.87
2022-08-11T23:15:00.400Z,17.80
2022-08-11T23:17:47.380Z,17.68
2022-08-11T23:20:48.009Z,17.66
2022-08-11T23:23:36.209Z,17.51
2022-08-11T23:26:22.542Z,17.60
2022-08-11T23:29:07.938Z,17.53
2022-08-11T23:31:56.161Z,17.60
2022-08-11T23:35:37.015Z,17.44
2022-08-11T23:37:53.716Z,17.50
2022-08-11T23:40:39.068Z,17.55
2022-08-11T23:43:25.725Z,17.39
2022-08-11T23:46:10.946Z,17.35
2022-08-11T23:48:57.794Z,17.28
2022-08-11T23:51:44.176Z,17.29
2022-08-11T23:54:36.476Z,17.24
2022-08-11T23:57:23.602Z,17.07
